createdAt,value
2018-11-21T00:01:01.384Z,21.50
2018-11-21T00:03:33.467Z,18.60
2018-11-21T00:06:04.000Z,20.02
2018-11-21T00:08:34.636Z,19.57
2018-11-21T00:11:04.613Z,20.90
2018-11-21T00:13:43.068Z,20.10
2018-11-21T00:16:13.984Z,20.70
2018-11-21T00:18:48.170Z,21.23
2018-11-21T00:21:18.088Z,19.27
2018-11-21T00:23:48.088Z,19.87
2018-11-21T00:26:19.972Z,19.80
2018-11-21T00:28:50.056Z,19.95
2018-11-21T00:31:19.964Z,19.55
2018-11-21T00:33:50.932Z,20.65
2018-11-21T00:36:23.344Z,20.10
2018-11-21T00:38:53.684Z,19.77
2018-11-21T00:41:33.068Z,20.57
2018-11-21T00:44:02.873Z,20.37
2018-11-21T00:46:34.820Z,19.45
2018-11-21T00:49:05.978Z,18.87
2018-11-21T00:51:35.936Z,21.20
2018-11-21T00:54:13.812Z,21.42
2018-11-21T00:57:03.084Z,22.02
2018-11-21T00:59:36.780Z,19.17
2018-11-21T01:02:14.392Z,18.87
2018-11-21T01:04:47.592Z,19.82
2018-11-21T01:07:21.140Z,19.87
2018-11-21T01:09:53.344Z,19.45
2018-11-21T01:12:25.504Z,20.90
2018-11-21T01:14:55.350Z,18.67
2018-11-21T01:17:32.896Z,19.17
2018-11-21T01:20:02.836Z,19.75
2018-11-21T01:22:34.035Z,18.62
2018-11-21T01:25:03.972Z,19.25
2018-11-21T01:27:33.900Z,19.17
2018-11-21T01:30:08.101Z,18.40
2018-11-21T01:32:39.341Z,20.70
2018-11-21T01:35:11.168Z,23.12
2018-11-21T01:37:43.128Z,21.60
2018-11-21T01:40:14.988Z,20.65
2018-11-21T01:42:44.880Z,20.92
2018-11-21T01:45:15.344Z,20.45
2018-11-21T01:47:47.244Z,20.55
2018-11-21T01:50:21.253Z,21.35
2018-11-21T01:52:53.271Z,22.80
2018-11-21T01:55:25.184Z,22.73
2018-11-21T01:57:55.808Z,22.25
2018-11-21T02:00:25.640Z,24.45
2018-11-21T02:03:05.029Z,24.43
2018-11-21T02:05:35.860Z,23.65
2018-11-21T02:08:05.816Z,22.62
2018-11-21T02:10:37.220Z,21.85
2018-11-21T02:13:07.448Z,25.35
2018-11-21T02:15:37.916Z,23.05
2018-11-21T02:18:08.835Z,20.52
2018-11-21T02:20:44.872Z,22.98
2018-11-21T02:23:15.065Z,23.65
2018-11-21T02:25:44.940Z,23.35
2018-11-21T02:28:19.060Z,21.17
2018-11-21T02:30:53.016Z,23.18
2018-11-21T02:33:29.003Z,20.52
2018-11-21T02:36:04.365Z,21.45
2018-11-21T02:38:35.233Z,22.10
2018-11-21T02:41:05.070Z,22.82
2018-11-21T02:43:37.008Z,19.45
2018-11-21T02:46:13.100Z,21.23
2018-11-21T02:48:46.024Z,23.38
2018-11-21T02:51:19.035Z,20.43
2018-11-21T02:53:51.264Z,22.55
2018-11-21T02:57:17.368Z,21.70
2018-11-21T02:59:47.689Z,20.97
2018-11-21T03:02:19.580Z,20.62
2018-11-21T03:04:52.541Z,20.45
2018-11-21T03:07:22.464Z,21.07
2018-11-21T03:09:52.468Z,19.98
2018-11-21T03:12:23.300Z,23.87
2018-11-21T03:14:53.192Z,21.02
2018-11-21T03:17:26.232Z,20.43
2018-11-21T03:19:56.154Z,22.95
2018-11-21T03:22:26.313Z,20.10
2018-11-21T03:24:56.460Z,19.17
2018-11-21T03:27:26.520Z,22.70
2018-11-21T03:29:56.437Z,21.30
2018-11-21T03:32:26.253Z,21.17
2018-11-21T03:35:02.437Z,22.95
2018-11-21T03:37:41.820Z,22.35
2018-11-21T03:40:12.717Z,20.88
2018-11-21T03:42:45.609Z,20.00
2018-11-21T03:45:22.958Z,21.17
2018-11-21T03:47:59.429Z,20.62
2018-11-21T03:50:30.473Z,20.40
2018-11-21T03:53:06.246Z,19.57
2018-11-21T03:55:36.705Z,19.90
2018-11-21T03:58:06.913Z,18.07
2018-11-21T04:00:36.894Z,19.05
2018-11-21T04:03:06.764Z,18.05
2018-11-21T04:05:38.606Z,18.57
2018-11-21T04:08:10.793Z,19.45
2018-11-21T04:10:41.716Z,18.95
2018-11-21T04:13:11.602Z,18.95
2018-11-21T04:15:45.236Z,18.92
2018-11-21T04:18:15.100Z,19.40
2018-11-21T04:20:45.345Z,20.12
2018-11-21T04:23:15.241Z,17.75
2018-11-21T04:25:45.201Z,19.25
2018-11-21T04:28:15.013Z,19.65
2018-11-21T04:30:45.941Z,19.75
2018-11-21T04:33:16.065Z,19.87
2018-11-21T04:35:47.920Z,18.95
2018-11-21T04:38:18.140Z,21.33
2018-11-21T04:40:48.745Z,20.20
2018-11-21T04:43:24.797Z,19.27
2018-11-21T04:45:55.812Z,18.87
2018-11-21T04:48:26.024Z,18.50
2018-11-21T04:50:58.285Z,17.42
2018-11-21T04:53:29.181Z,19.23
2018-11-21T04:55:59.441Z,21.02
2018-11-21T04:58:32.589Z,19.50
2018-11-21T05:01:02.431Z,18.52
2018-11-21T05:03:44.861Z,17.75
2018-11-21T05:06:15.886Z,18.10
2018-11-21T05:08:50.069Z,16.95
2018-11-21T05:11:20.241Z,18.23
2018-11-21T05:13:50.081Z,16.55
2018-11-21T05:16:19.925Z,17.32
2018-11-21T05:18:50.144Z,18.07
2018-11-21T05:21:20.051Z,15.58
2018-11-21T05:23:52.413Z,19.40
2018-11-21T05:26:26.498Z,18.23
2018-11-21T05:29:00.372Z,17.52
2018-11-21T05:31:32.169Z,18.50
2018-11-21T05:34:04.064Z,16.73
2018-11-21T05:36:34.909Z,17.27
2018-11-21T05:39:14.192Z,16.20
2018-11-21T05:41:45.388Z,15.78
2018-11-21T05:44:31.117Z,15.38
2018-11-21T05:46:57.869Z,16.10
2018-11-21T05:49:29.749Z,15.98
2018-11-21T05:52:03.689Z,16.12
2018-11-21T05:54:34.825Z,16.70
2018-11-21T05:57:07.881Z,15.50
2018-11-21T05:59:37.825Z,17.10
2018-11-21T06:02:07.745Z,16.87
2018-11-21T06:04:39.593Z,17.17
2018-11-21T06:07:11.850Z,15.63
2018-11-21T06:09:44.025Z,16.57
2018-11-21T06:12:13.909Z,15.23
2018-11-21T06:14:46.097Z,14.95
2018-11-21T06:17:16.795Z,14.78
2018-11-21T06:19:46.924Z,15.35
2018-11-21T06:22:25.209Z,15.80
2018-11-21T06:24:58.374Z,14.35
2018-11-21T06:27:30.241Z,15.35
2018-11-21T06:30:13.808Z,14.83
2018-11-21T06:32:46.237Z,15.28
2018-11-21T06:35:18.005Z,15.40
2018-11-21T06:37:54.077Z,16.75
2018-11-21T06:40:39.374Z,16.45
2018-11-21T06:43:10.493Z,15.85
2018-11-21T06:45:43.445Z,15.40
2018-11-21T06:48:13.753Z,15.95
2018-11-21T06:50:45.873Z,16.55
2018-11-21T06:53:19.023Z,15.45
2018-11-21T06:55:48.888Z,15.93
2018-11-21T06:58:25.461Z,16.10
2018-11-21T07:00:56.281Z,15.65
2018-11-21T07:03:26.074Z,16.07
2018-11-21T07:06:00.345Z,16.90
2018-11-21T07:08:31.213Z,14.53
2018-11-21T07:11:05.111Z,15.30
2018-11-21T07:13:41.005Z,14.63
2018-11-21T07:16:10.921Z,14.85
2018-11-21T07:18:41.037Z,13.70
2018-11-21T07:21:11.357Z,11.97
2018-11-21T07:23:43.366Z,14.43
2018-11-21T07:26:13.743Z,12.90
2018-11-21T07:28:43.534Z,14.18
2018-11-21T07:31:13.688Z,12.85
2018-11-21T07:33:46.784Z,13.85
2018-11-21T07:36:29.028Z,13.18
2018-11-21T07:39:00.110Z,12.15
2018-11-21T07:41:32.193Z,14.53
2018-11-21T07:44:04.369Z,13.45
2018-11-21T07:46:47.433Z,12.65
2018-11-21T07:49:17.394Z,13.05
2018-11-21T07:52:01.485Z,13.22
2018-11-21T07:54:32.297Z,12.45
2018-11-21T07:57:31.057Z,12.25
2018-11-21T08:00:47.381Z,12.40
2018-11-21T08:03:17.597Z,12.23
2018-11-21T08:05:50.965Z,11.80
2018-11-21T08:08:38.600Z,10.80
2018-11-21T08:11:30.648Z,12.10
2018-11-21T08:14:21.121Z,10.23
2018-11-21T08:17:10.033Z,12.65
2018-11-21T08:19:57.261Z,11.60
2018-11-21T08:22:53.429Z,11.63
2018-11-21T08:25:48.061Z,12.50
2018-11-21T08:28:31.165Z,10.45
2018-11-21T08:31:12.419Z,10.32
2018-11-21T08:33:57.677Z,10.05
2018-11-21T08:36:32.037Z,10.45
2018-11-21T08:39:01.959Z,11.60
2018-11-21T08:41:33.801Z,10.70
2018-11-21T08:44:03.630Z,11.53
2018-11-21T08:46:39.721Z,9.23
2018-11-21T08:49:09.653Z,10.40
2018-11-21T08:51:43.232Z,10.25
2018-11-21T08:54:13.549Z,10.30
2018-11-21T08:56:43.513Z,11.30
2018-11-21T08:59:13.245Z,11.75
2018-11-21T09:01:43.017Z,11.68
2018-11-21T09:04:12.789Z,11.22
2018-11-21T09:06:42.745Z,11.20
2018-11-21T09:09:12.925Z,11.25
2018-11-21T09:12:08.688Z,12.95
2018-11-21T09:14:54.521Z,12.35
2018-11-21T09:17:29.481Z,11.63
2018-11-21T09:20:11.061Z,10.68
2018-11-21T09:22:51.021Z,11.53
2018-11-21T09:25:20.961Z,13.22
2018-11-21T09:28:00.661Z,12.35
2018-11-21T09:30:31.113Z,11.95
2018-11-21T09:33:03.226Z,11.80
2018-11-21T09:35:33.317Z,13.88
2018-11-21T09:38:12.406Z,11.40
2018-11-21T09:41:07.989Z,11.15
2018-11-21T09:43:52.638Z,11.70
2018-11-21T09:46:25.889Z,12.15
2018-11-21T09:49:13.053Z,13.28
2018-11-21T09:51:49.177Z,12.88
2018-11-21T09:54:23.249Z,12.18
2018-11-21T09:56:55.237Z,11.85
2018-11-21T09:59:28.713Z,12.03
2018-11-21T10:02:57.813Z,13.25
2018-11-21T10:05:35.841Z,12.43
2018-11-21T10:08:45.942Z,11.90
2018-11-21T10:11:20.349Z,11.50
2018-11-21T10:13:56.685Z,11.68
2018-11-21T10:16:26.885Z,13.20
2018-11-21T10:18:58.285Z,12.07
2018-11-21T10:21:55.560Z,12.25
2018-11-21T10:24:37.301Z,11.43
2018-11-21T10:27:11.973Z,11.53
2018-11-21T10:29:41.886Z,11.38
2018-11-21T10:32:14.661Z,11.80
2018-11-21T10:34:56.709Z,10.95
2018-11-21T10:37:27.604Z,11.12
2018-11-21T10:40:01.594Z,11.68
2018-11-21T10:42:36.793Z,12.15
2018-11-21T10:45:08.529Z,11.50
2018-11-21T10:47:38.509Z,10.70
2018-11-21T10:50:09.472Z,10.55
2018-11-21T10:52:52.846Z,9.48
2018-11-21T10:55:22.745Z,10.32
2018-11-21T10:57:56.927Z,10.30
2018-11-21T11:00:46.361Z,10.85
2018-11-21T11:03:44.981Z,8.95
2018-11-21T11:06:39.453Z,9.40
2018-11-21T11:09:30.781Z,9.73
2018-11-21T11:12:19.541Z,7.65
2018-11-21T11:15:26.777Z,7.00
2018-11-21T11:18:22.149Z,7.22
2018-11-21T11:21:11.719Z,7.12
2018-11-21T11:24:03.705Z,7.95
2018-11-21T11:26:54.589Z,8.63
2018-11-21T11:29:44.469Z,8.58
2018-11-21T11:32:31.334Z,8.70
2018-11-21T11:35:19.113Z,7.87
2018-11-21T11:38:10.510Z,10.13
2018-11-21T11:41:15.183Z,10.40
2018-11-21T11:44:13.165Z,8.98
2018-11-21T11:47:09.269Z,8.98
2018-11-21T11:49:51.045Z,10.60
2018-11-21T11:52:49.061Z,9.95
2018-11-21T11:55:54.893Z,10.00
2018-11-21T11:58:49.596Z,7.95
2018-11-21T12:01:42.273Z,9.15
2018-11-21T12:04:30.329Z,9.20
2018-11-21T12:07:17.581Z,9.68
2018-11-21T12:10:13.825Z,9.70
2018-11-21T12:13:01.172Z,10.18
2018-11-21T12:16:02.517Z,9.50
2018-11-21T12:19:00.673Z,10.18
2018-11-21T12:21:48.573Z,9.65
2018-11-21T12:24:51.142Z,7.95
2018-11-21T12:27:42.970Z,8.25
2018-11-21T12:30:20.784Z,8.83
2018-11-21T12:33:12.201Z,8.80
2018-11-21T12:36:22.771Z,9.48
2018-11-21T12:39:14.976Z,10.20
2018-11-21T12:42:02.969Z,10.98
2018-11-21T12:44:49.877Z,9.58
2018-11-21T12:47:51.545Z,10.80
2018-11-21T12:50:35.350Z,10.60
2018-11-21T12:53:29.089Z,10.38
2018-11-21T12:56:16.853Z,10.68
2018-11-21T12:59:05.261Z,9.80
2018-11-21T13:01:41.429Z,11.00
2018-11-21T13:04:39.545Z,10.63
2018-11-21T13:07:17.745Z,12.13
2018-11-21T13:10:08.813Z,9.55
2018-11-21T13:13:01.025Z,10.15
2018-11-21T13:15:43.231Z,10.40
2018-11-21T13:18:25.293Z,12.20
2018-11-21T13:21:03.037Z,13.05
2018-11-21T13:23:42.776Z,11.80
2018-11-21T13:26:29.297Z,14.90
2018-11-21T13:29:30.465Z,12.90
2018-11-21T13:32:27.444Z,12.40
2018-11-21T13:35:05.207Z,12.55
2018-11-21T13:38:03.109Z,14.00
2018-11-21T13:40:50.974Z,13.90
2018-11-21T13:43:31.485Z,16.57
2018-11-21T13:46:24.619Z,15.10
2018-11-21T13:49:07.849Z,14.13
2018-11-21T13:51:49.849Z,15.68
2018-11-21T13:54:58.266Z,15.50
2018-11-21T13:57:28.617Z,13.00
2018-11-21T14:00:02.923Z,13.60
2018-11-21T14:02:37.329Z,15.08
2018-11-21T14:05:10.321Z,13.43
2018-11-21T14:07:40.117Z,14.85
2018-11-21T14:10:11.693Z,13.65
2018-11-21T14:12:42.841Z,13.65
2018-11-21T14:15:16.701Z,14.58
2018-11-21T14:17:46.546Z,14.03
2018-11-21T14:20:16.381Z,13.53
2018-11-21T14:22:52.865Z,13.90
2018-11-21T14:25:26.857Z,13.80
2018-11-21T14:28:02.918Z,15.63
2018-11-21T14:30:32.845Z,14.75
2018-11-21T14:33:02.778Z,13.60
2018-11-21T14:35:33.733Z,14.63
2018-11-21T14:38:10.082Z,14.90
2018-11-21T14:40:43.289Z,14.63
2018-11-21T14:43:15.218Z,15.03
2018-11-21T14:45:45.451Z,14.73
2018-11-21T14:48:15.338Z,16.07
2018-11-21T14:50:53.449Z,14.75
2018-11-21T14:53:23.605Z,15.18
2018-11-21T14:55:54.466Z,15.70
2018-11-21T14:58:27.957Z,15.95
2018-11-21T15:00:58.753Z,15.43
2018-11-21T15:03:28.701Z,16.48
2018-11-21T15:06:01.254Z,16.12
2018-11-21T15:08:31.068Z,15.83
2018-11-21T15:11:08.537Z,16.73
2018-11-21T15:13:38.485Z,17.12
2018-11-21T15:16:10.326Z,16.50
2018-11-21T15:18:41.270Z,17.32
2018-11-21T15:21:16.514Z,15.40
2018-11-21T15:23:41.316Z,17.05
2018-11-21T15:26:12.234Z,16.20
2018-11-21T15:28:53.497Z,14.98
2018-11-21T15:31:23.401Z,17.20
2018-11-21T15:33:53.257Z,14.18
2018-11-21T15:36:23.493Z,15.90
2018-11-21T15:38:53.386Z,14.75
2018-11-21T15:41:24.290Z,16.37
2018-11-21T15:43:56.621Z,16.37
2018-11-21T15:46:37.791Z,16.27
2018-11-21T15:49:20.035Z,13.95
2018-11-21T15:51:49.813Z,15.55
2018-11-21T15:54:20.062Z,15.55
2018-11-21T15:56:50.833Z,15.68
2018-11-21T15:59:20.937Z,14.73
2018-11-21T16:01:59.933Z,15.78
2018-11-21T16:04:30.074Z,15.88
2018-11-21T16:06:59.990Z,15.83
2018-11-21T16:09:30.038Z,15.93
2018-11-21T16:12:09.006Z,15.30
2018-11-21T16:14:38.846Z,16.55
2018-11-21T16:17:08.789Z,16.20
2018-11-21T16:19:38.682Z,15.83
2018-11-21T16:22:08.505Z,16.20
2018-11-21T16:24:40.455Z,16.35
2018-11-21T16:27:10.586Z,17.98
2018-11-21T16:29:43.578Z,16.60
2018-11-21T16:32:14.434Z,16.87
2018-11-21T16:34:47.825Z,16.55
2018-11-21T16:37:17.894Z,16.82
2018-11-21T16:39:52.270Z,17.52
2018-11-21T16:42:26.278Z,17.30
2018-11-21T16:44:57.266Z,16.90
2018-11-21T16:47:27.201Z,18.05
2018-11-21T16:50:06.979Z,17.95
2018-11-21T16:52:37.850Z,16.73
2018-11-21T16:55:09.814Z,16.12
2018-11-21T16:57:44.202Z,17.30
2018-11-21T17:00:21.673Z,14.80
2018-11-21T17:02:54.262Z,16.65
2018-11-21T17:05:32.841Z,15.88
2018-11-21T17:08:08.718Z,15.25
2018-11-21T17:10:38.683Z,15.25
2018-11-21T17:13:10.487Z,15.85
2018-11-21T17:15:48.693Z,16.32
2018-11-21T17:18:20.550Z,15.13
2018-11-21T17:20:51.577Z,16.95
2018-11-21T17:23:28.470Z,15.83
2018-11-21T17:26:07.474Z,15.03
2018-11-21T17:28:45.634Z,15.85
2018-11-21T17:31:19.578Z,15.15
2018-11-21T17:33:53.455Z,15.70
2018-11-21T17:36:23.731Z,14.85
2018-11-21T17:38:54.821Z,14.28
2018-11-21T17:41:29.722Z,14.95
2018-11-21T17:44:00.615Z,16.80
2018-11-21T17:46:30.518Z,16.20
2018-11-21T17:49:02.890Z,17.65
2018-11-21T17:51:39.700Z,16.05
2018-11-21T17:54:09.598Z,15.80
2018-11-21T17:56:46.671Z,16.02
2018-11-21T17:59:16.602Z,16.90
2018-11-21T18:01:46.507Z,17.30
2018-11-21T18:04:20.670Z,18.80
2018-11-21T18:06:51.606Z,17.48
2018-11-21T18:09:22.782Z,17.30
2018-11-21T18:12:00.050Z,17.17
2018-11-21T18:14:36.130Z,15.85
2018-11-21T18:17:07.023Z,17.12
2018-11-21T18:19:36.826Z,16.42
2018-11-21T18:22:06.698Z,16.37
2018-11-21T18:24:38.879Z,16.30
2018-11-21T18:27:12.866Z,16.05
2018-11-21T18:29:42.870Z,16.25
2018-11-21T18:32:13.654Z,15.23
2018-11-21T18:34:50.734Z,17.23
2018-11-21T18:37:22.875Z,18.05
2018-11-21T18:39:52.724Z,18.07
2018-11-21T18:42:25.651Z,17.40
2018-11-21T18:45:01.622Z,17.23
2018-11-21T18:47:31.427Z,16.60
2018-11-21T18:50:08.049Z,18.10
2018-11-21T18:52:37.303Z,17.10
2018-11-21T18:55:11.306Z,18.30
2018-11-21T18:58:22.074Z,25.40
2018-11-21T19:00:55.478Z,21.70
2018-11-21T19:03:26.475Z,26.30
2018-11-21T19:05:57.354Z,24.72
2018-11-21T19:08:30.486Z,27.87
2018-11-21T19:11:00.266Z,22.00
2018-11-21T19:13:30.634Z,26.33
2018-11-21T19:16:09.946Z,22.07
2018-11-21T19:18:41.785Z,24.32
2018-11-21T19:21:12.890Z,22.50
2018-11-21T19:23:42.742Z,20.65
2018-11-21T19:26:13.522Z,18.75
2018-11-21T19:28:43.649Z,17.60
2018-11-21T19:31:29.538Z,18.25
2018-11-21T19:33:55.770Z,17.07
2018-11-21T19:36:25.911Z,16.93
2018-11-21T19:38:55.710Z,16.93
2018-11-21T19:41:25.536Z,16.55
2018-11-21T19:43:56.702Z,16.00
2018-11-21T19:46:26.819Z,17.35
2018-11-21T19:49:01.207Z,16.67
2018-11-21T19:51:31.038Z,17.85
2018-11-21T19:54:02.154Z,16.20
2018-11-21T19:56:38.186Z,16.73
2018-11-21T19:59:09.977Z,18.10
2018-11-21T20:01:42.985Z,15.78
2018-11-21T20:04:12.982Z,15.48
2018-11-21T20:06:49.010Z,15.68
2018-11-21T20:09:20.138Z,16.10
2018-11-21T20:11:53.110Z,16.90
2018-11-21T20:14:38.362Z,17.30
2018-11-21T20:17:09.218Z,16.20
2018-11-21T20:19:44.204Z,17.12
2018-11-21T20:22:14.150Z,16.67
2018-11-21T20:24:44.082Z,17.92
2018-11-21T20:27:15.154Z,17.60
2018-11-21T20:29:46.706Z,16.97
2018-11-21T20:32:14.863Z,16.10
2018-11-21T20:34:51.109Z,17.02
2018-11-21T20:37:23.362Z,16.80
2018-11-21T20:39:53.690Z,16.80
2018-11-21T20:42:32.919Z,17.27
2018-11-21T20:45:15.686Z,15.65
2018-11-21T20:47:55.730Z,18.50
2018-11-21T20:50:28.430Z,17.82
2018-11-21T20:53:08.527Z,16.35
2018-11-21T20:55:41.480Z,16.80
2018-11-21T20:58:11.522Z,16.57
2018-11-21T21:00:43.394Z,16.75
2018-11-21T21:03:15.389Z,16.73
2018-11-21T21:05:49.207Z,16.40
2018-11-21T21:08:26.159Z,17.73
2018-11-21T21:10:58.234Z,17.32
2018-11-21T21:13:28.414Z,18.80
2018-11-21T21:15:58.654Z,18.23
2018-11-21T21:18:30.497Z,18.05
2018-11-21T21:21:03.702Z,17.17
2018-11-21T21:23:35.562Z,18.07
2018-11-21T21:26:08.786Z,18.85
2018-11-21T21:28:42.131Z,17.07
2018-11-21T21:31:12.142Z,16.65
2018-11-21T21:33:42.063Z,17.40
2018-11-21T21:36:16.279Z,18.12
2018-11-21T21:38:46.102Z,18.45
2018-11-21T21:41:18.709Z,17.65
2018-11-21T21:43:50.134Z,18.10
2018-11-21T21:46:23.098Z,18.20
2018-11-21T21:49:02.918Z,19.27
2018-11-21T21:51:39.740Z,17.12
2018-11-21T21:54:11.682Z,19.23
2018-11-21T21:56:45.538Z,17.40
2018-11-21T21:59:15.738Z,18.87
2018-11-21T22:01:51.670Z,21.02
2018-11-21T22:04:22.010Z,17.75
2018-11-21T22:06:52.886Z,17.92
2018-11-21T22:09:22.776Z,17.52
2018-11-21T22:11:53.657Z,17.70
2018-11-21T22:14:23.508Z,20.40
2018-11-21T22:17:07.750Z,17.75
2018-11-21T22:19:39.115Z,18.23
2018-11-21T22:22:09.389Z,17.98
2018-11-21T22:24:40.292Z,14.58
2018-11-21T22:27:11.826Z,18.12
2018-11-21T22:29:42.894Z,19.37
2018-11-21T22:32:14.713Z,16.85
2018-11-21T22:34:45.914Z,17.40
2018-11-21T22:37:18.126Z,19.30
2018-11-21T22:39:48.390Z,18.02
2018-11-21T22:42:21.459Z,19.75
2018-11-21T22:44:54.460Z,17.32
2018-11-21T22:47:24.558Z,18.00
2018-11-21T22:49:58.666Z,19.05
2018-11-21T22:52:37.714Z,19.82
2018-11-21T22:55:09.336Z,19.07
2018-11-21T22:57:43.786Z,21.33
2018-11-21T23:00:20.083Z,18.57
2018-11-21T23:02:52.143Z,20.02
2018-11-21T23:05:22.983Z,16.07
2018-11-21T23:07:53.262Z,17.52
